^^
Saratoga-Weather Station Historical Data
 
Daily Summary for October 21, 2019 Units:  English    Metric   Both
Daily Weekly Monthly Yearly Custom
  Current: High: Low: Average:
Temperature: 64.5 °F 70.2 °F 57.8 °F 63.2 °F
Dew Point: 62.1 °F 66.2 °F 56.1 °F 61 °F
Humidity: 92% 95% 86% 93%
Wind Speed: 0mph 7mph 0mph 1.6mph
Wind Gust: 0mph 15mph - -
WindCalm - - SSE
Pressure: 29.93 in 30.01 in 29.91 in -
Precipitation: 0.19 in      
Historical Graphs
 
 
Tabular Data for October 21, 2019
Time Temperature Dew Point Pressure Wind Wind Speed Wind Gust Humidity Rainfall Rate (Hourly) solar
00:00 57.8 °F 56.1 °F 30.01 in Calm   1 mph 94% 0 in 0.00 W/m2
00:05 57.8 °F 56.1 °F 30.00 in Calm   1 mph 94% 0 in 0.00 W/m2
00:10 57.9 °F 56.2 °F 30.00 in Calm   2 mph 94% 0 in 0.00 W/m2
00:15 58 °F 56.3 °F 30.00 in Calm   1 mph 94% 0 in 0.00 W/m2
00:20 58.1 °F 56.4 °F 30.00 in Calm     94% 0 in 0.00 W/m2
00:25 58.2 °F 56.5 °F 30.00 in Calm     94% 0 in 0.00 W/m2
00:30 58.2 °F 56.5 °F 30.00 in Calm     94% 0 in 0.00 W/m2
00:35 58.3 °F 56.6 °F 30.00 in Calm     94% 0 in 0.00 W/m2
00:40 58.2 °F 56.5 °F 30.00 in Calm     94% 0 in 0.00 W/m2
00:45 58.2 °F 56.5 °F 30.00 in Calm     94% 0 in 0.00 W/m2
00:50 58.2 °F 56.5 °F 30.01 in Calm     94% 0 in 0.00 W/m2
00:55 58.2 °F 56.5 °F 30.00 in Calm     94% 0 in 0.00 W/m2
01:00 58.2 °F 56.5 °F 30.00 in Calm     94% 0 in 0.00 W/m2
01:05 58.1 °F 56.4 °F 30.00 in Calm     94% 0 in 0.00 W/m2
01:10 58.1 °F 56.4 °F 30.00 in Calm     94% 0 in 0.00 W/m2
01:15 58.2 °F 56.5 °F 30.00 in Calm   1 mph 94% 0 in 0.00 W/m2
01:20 58.3 °F 56.6 °F 29.99 in Calm   2 mph 94% 0 in 0.00 W/m2
01:25 58.4 °F 56.7 °F 29.99 in Calm   1 mph 94% 0 in 0.00 W/m2
01:30 58.5 °F 56.8 °F 29.99 in Calm   2 mph 94% 0 in 0.00 W/m2
01:35 58.5 °F 57.1 °F 29.99 in Calm   1 mph 95% 0 in 0.00 W/m2
01:40 58.5 °F 56.8 °F 29.99 in Calm     94% 0 in 0.00 W/m2
01:45 58.6 °F 56.9 °F 29.99 in Calm   2 mph 94% 0 in 0.00 W/m2
01:50 58.7 °F 57 °F 29.98 in Calm   2 mph 94% 0 in 0.00 W/m2
01:55 58.8 °F 57.4 °F 29.98 in Calm   1 mph 95% 0 in 0.00 W/m2
02:00 58.8 °F 57.4 °F 29.98 in Calm   2 mph 95% 0 in 0.00 W/m2
02:05 58.9 °F 57.5 °F 29.98 in SSE 1 mph 4 mph 95% 0 in 0.00 W/m2
02:10 59.1 °F 57.7 °F 29.98 in SSE 1 mph 4 mph 95% 0 in 0.00 W/m2
02:15 59.1 °F 57.7 °F 29.98 in Calm   2 mph 95% 0 in 0.00 W/m2
02:20 59.2 °F 57.8 °F 29.98 in SSE 1 mph 4 mph 95% 0 in 0.00 W/m2
02:25 59.2 °F 57.8 °F 29.98 in SSE 1 mph 3 mph 95% 0 in 0.00 W/m2
02:30 59.2 °F 57.8 °F 29.97 in Calm   3 mph 95% 0 in 0.00 W/m2
02:35 59.2 °F 57.8 °F 29.98 in Calm   1 mph 95% 0 in 0.00 W/m2
02:40 59.2 °F 57.8 °F 29.97 in Calm   1 mph 95% 0 in 0.00 W/m2
02:45 59.2 °F 57.8 °F 29.97 in Calm     95% 0 in 0.00 W/m2
02:50 59.2 °F 57.8 °F 29.97 in Calm   1 mph 95% 0 in 0.00 W/m2
02:55 59.1 °F 57.7 °F 29.96 in Calm     95% 0 in 0.00 W/m2
03:00 59.1 °F 57.7 °F 29.97 in Calm   1 mph 95% 0 in 0.00 W/m2
03:05 59.1 °F 57.7 °F 29.97 in Calm   1 mph 95% 0 in 0.00 W/m2
03:10 59.1 °F 57.7 °F 29.97 in Calm   2 mph 95% 0 in 0.00 W/m2
03:15 59.1 °F 57.7 °F 29.96 in Calm   2 mph 95% 0 in 0.00 W/m2
03:20 59.1 °F 57.7 °F 29.96 in Calm     95% 0 in 0.00 W/m2
03:25 59.1 °F 57.7 °F 29.96 in Calm   1 mph 95% 0 in 0.00 W/m2
03:30 59.1 °F 57.7 °F 29.96 in Calm   1 mph 95% 0 in 0.00 W/m2
03:35 59 °F 57.6 °F 29.96 in Calm   2 mph 95% 0 in 0.00 W/m2
03:40 58.9 °F 57.5 °F 29.96 in Calm   1 mph 95% 0 in 0.00 W/m2
03:45 58.9 °F 57.5 °F 29.96 in Calm   1 mph 95% 0 in 0.00 W/m2
03:50 58.8 °F 57.4 °F 29.96 in Calm   2 mph 95% 0 in 0.00 W/m2
03:55 58.8 °F 57.4 °F 29.96 in Calm   1 mph 95% 0 in 0.00 W/m2
04:00 58.9 °F 57.5 °F 29.96 in Calm   1 mph 95% 0 in 0.00 W/m2
04:05 58.9 °F 57.5 °F 29.96 in Calm   2 mph 95% 0 in 0.00 W/m2
04:10 58.9 °F 57.5 °F 29.96 in Calm   2 mph 95% 0 in 0.00 W/m2
04:15 58.9 °F 57.5 °F 29.96 in Calm   2 mph 95% 0 in 0.00 W/m2
04:20 58.9 °F 57.5 °F 29.95 in Calm   1 mph 95% 0 in 0.00 W/m2
04:25 59 °F 57.6 °F 29.96 in Calm   2 mph 95% 0 in 0.00 W/m2
04:30 59 °F 57.6 °F 29.96 in Calm   2 mph 95% 0 in 0.00 W/m2
04:35 59.1 °F 57.7 °F 29.96 in Calm   2 mph 95% 0 in 0.00 W/m2
04:40 59.1 °F 57.7 °F 29.97 in Calm   3 mph 95% 0 in 0.00 W/m2
04:45 59 °F 57.6 °F 29.96 in SSE 1 mph 3 mph 95% 0 in 0.00 W/m2
04:50 59 °F 57.6 °F 29.96 in Calm   2 mph 95% 0 in 0.00 W/m2
04:55 58.9 °F 57.5 °F 29.96 in Calm   1 mph 95% 0 in 0.00 W/m2
05:00 58.9 °F 57.5 °F 29.96 in Calm     95% 0 in 0.00 W/m2
05:05 58.9 °F 57.5 °F 29.97 in Calm     95% 0 in 0.00 W/m2
05:10 58.9 °F 57.5 °F 29.97 in Calm     95% 0 in 0.00 W/m2
05:15 58.8 °F 57.4 °F 29.98 in Calm     95% 0 in 0.00 W/m2
05:20 58.8 °F 57.1 °F 29.98 in Calm     94% 0 in 0.00 W/m2
05:25 58.7 °F 57 °F 29.98 in Calm     94% 0 in 0.00 W/m2
05:30 58.6 °F 56.9 °F 29.98 in Calm     94% 0 in 0.00 W/m2
05:35 58.5 °F 56.8 °F 29.98 in Calm     94% 0 in 0.00 W/m2
05:40 58.4 °F 57 °F 29.98 in Calm     95% 0 in 0.00 W/m2
05:45 58.3 °F 56.9 °F 29.98 in Calm     95% 0 in 0.00 W/m2
05:50 58.2 °F 56.8 °F 29.98 in Calm   2 mph 95% 0 in 0.00 W/m2
05:55 58 °F 56.3 °F 29.98 in Calm   1 mph 94% 0 in 0.00 W/m2
06:00 58 °F 56.6 °F 29.98 in Calm   2 mph 95% 0 in 0.00 W/m2
06:05 58 °F 56.6 °F 29.98 in Calm   1 mph 95% 0 in 0.00 W/m2
06:10 57.9 °F 56.5 °F 29.98 in Calm   1 mph 95% 0 in 0.00 W/m2
06:15 58 °F 56.6 °F 29.98 in SSE 1 mph 3 mph 95% 0 in 0.00 W/m2
06:20 58.2 °F 56.8 °F 29.97 in SSE 2 mph 4 mph 95% 0 in 0.00 W/m2
06:25 58.5 °F 57.1 °F 29.97 in SSE 2 mph 5 mph 95% 0 in 0.00 W/m2
06:30 58.6 °F 57.2 °F 29.97 in SSE 1 mph 3 mph 95% 0 in 0.00 W/m2
06:35 58.6 °F 57.2 °F 29.98 in SSE 1 mph 3 mph 95% 0 in 0.00 W/m2
06:40 58.7 °F 57.3 °F 29.98 in SSE 1 mph 3 mph 95% 0 in 0.00 W/m2
06:45 58.6 °F 57.2 °F 29.98 in Calm   1 mph 95% 0 in 0.00 W/m2
06:50 58.7 °F 57.3 °F 29.97 in SSE 1 mph 3 mph 95% 0 in 0.00 W/m2
06:55 58.7 °F 57.3 °F 29.97 in SSE 2 mph 3 mph 95% 0 in 0.00 W/m2
07:00 58.8 °F 57.4 °F 29.97 in SSE 3 mph 6 mph 95% 0 in 3.00 W/m2
07:05 58.9 °F 57.5 °F 29.97 in SSE 3 mph 7 mph 95% 0 in 7.00 W/m2
07:10 59.1 °F 57.7 °F 29.97 in South 3 mph 7 mph 95% 0 in 10.00 W/m2
07:15 59.3 °F 57.9 °F 29.98 in SSE 3 mph 6 mph 95% 0 in 16.00 W/m2
07:20 59.4 °F 58 °F 29.98 in SSE 2 mph 5 mph 95% 0 in 19.00 W/m2
07:25 59.6 °F 58.2 °F 29.97 in SSE 4 mph 9 mph 95% 0 in 19.00 W/m2
07:30 59.8 °F 58.4 °F 29.97 in SSE 4 mph 7 mph 95% 0 in 26.00 W/m2
07:35 59.9 °F 58.5 °F 29.97 in SE 3 mph 10 mph 95% 0 in 40.00 W/m2
07:40 60.1 °F 58.7 °F 29.97 in SSE 3 mph 7 mph 95% 0 in 43.00 W/m2
07:45 60.1 °F 58.7 °F 29.97 in South 2 mph 6 mph 95% 0 in 38.00 W/m2
07:50 60.2 °F 58.8 °F 29.97 in SSE 3 mph 7 mph 95% 0 in 46.00 W/m2
07:55 60.3 °F 58.9 °F 29.97 in SSE 4 mph 6 mph 95% 0 in 43.00 W/m2
08:00 60.3 °F 58.9 °F 29.97 in SE 2 mph 6 mph 95% 0 in 43.00 W/m2
08:05 60.4 °F 59 °F 29.97 in SSE 4 mph 7 mph 95% 0 in 52.00 W/m2
08:10 60.4 °F 59 °F 29.97 in SSE 3 mph 6 mph 95% 0 in 70.00 W/m2
08:15 60.5 °F 59.1 °F 29.97 in SSE 4 mph 8 mph 95% 0 in 42.00 W/m2
08:20 60.5 °F 59.1 °F 29.97 in SE 4 mph 7 mph 95% 0 in 59.00 W/m2
08:25 60.5 °F 59.1 °F 29.98 in SE 3 mph 6 mph 95% 0 in 65.00 W/m2
08:30 60.6 °F 59.2 °F 29.98 in SSE 3 mph 6 mph 95% 0 in 45.00 W/m2
08:35 60.6 °F 59.2 °F 29.98 in SSE 4 mph 8 mph 95% 0 in 65.00 W/m2
08:40 60.7 °F 59.3 °F 29.98 in SSE 2 mph 5 mph 95% 0 in 76.00 W/m2
08:45 60.7 °F 59.3 °F 29.99 in SSE 3 mph 6 mph 95% 0 in 66.00 W/m2
08:50 60.8 °F 59.4 °F 29.99 in SSE 5 mph 10 mph 95% 0 in 69.00 W/m2
08:55 60.9 °F 59.5 °F 29.99 in South 2 mph 7 mph 95% 0 in 97.00 W/m2
09:00 61 °F 59.6 °F 29.99 in SSE 2 mph 6 mph 95% 0 in 111.00 W/m2
09:05 61.1 °F 59.7 °F 29.99 in SSE 2 mph 4 mph 95% 0 in 54.00 W/m2
09:10 61.2 °F 59.8 °F 29.99 in Calm   3 mph 95% 0 in 64.00 W/m2
09:15 61.3 °F 59.9 °F 29.99 in SSE 1 mph 3 mph 95% 0 in 79.00 W/m2
09:20 61.4 °F 60 °F 29.98 in SSE 1 mph 5 mph 95% 0 in 92.00 W/m2
09:25 61.5 °F 60.1 °F 29.98 in SE 1 mph 5 mph 95% 0 in 84.00 W/m2
09:30 61.6 °F 60.2 °F 29.98 in SSE 2 mph 6 mph 95% 0 in 84.00 W/m2
09:35 61.6 °F 60.2 °F 29.98 in South 2 mph 8 mph 95% 0 in 112.00 W/m2
09:40 61.7 °F 60.3 °F 29.98 in SSE 3 mph 6 mph 95% 0 in 146.00 W/m2
09:45 61.8 °F 60.4 °F 29.98 in SSE 1 mph 3 mph 95% 0 in 160.00 W/m2
09:50 62 °F 60.5 °F 29.98 in SSE 3 mph 7 mph 95% 0 in 168.00 W/m2
09:55 62.2 °F 60.7 °F 29.98 in South 4 mph 8 mph 95% 0 in 160.00 W/m2
10:00 62.4 °F 60.9 °F 29.98 in SSE 4 mph 8 mph 95% 0 in 160.00 W/m2
10:05 62.5 °F 61 °F 29.98 in SSE 3 mph 6 mph 95% 0 in 144.00 W/m2
10:10 62.7 °F 61.2 °F 29.98 in SSE 4 mph 6 mph 95% 0 in 245.00 W/m2
10:15 63 °F 61.5 °F 29.98 in SSE 4 mph 7 mph 95% 0 in 301.00 W/m2
10:20 63.2 °F 61.7 °F 29.98 in SSE 5 mph 10 mph 95% 0 in 276.00 W/m2
10:25 63.4 °F 61.9 °F 29.98 in SSE 6 mph 15 mph 95% 0 in 231.00 W/m2
10:30 63.6 °F 62.1 °F 29.98 in SE 4 mph 8 mph 95% 0 in 226.00 W/m2
10:35 63.8 °F 62.3 °F 29.99 in SSE 4 mph 11 mph 95% 0 in 213.00 W/m2
10:40 64 °F 62.5 °F 29.99 in South 5 mph 12 mph 95% 0 in 219.00 W/m2
10:45 64.2 °F 62.7 °F 30.00 in South 6 mph 11 mph 95% 0 in 233.00 W/m2
10:50 64.4 °F 62.9 °F 29.99 in SSE 5 mph 10 mph 95% 0 in 241.00 W/m2
10:55 64.6 °F 62.8 °F 29.99 in SSE 7 mph 12 mph 94% 0 in 336.00 W/m2
11:00 64.9 °F 63.1 °F 29.99 in SSE 6 mph 10 mph 94% 0 in 359.00 W/m2
11:05 65.4 °F 63.6 °F 29.99 in SSE 6 mph 11 mph 94% 0 in 546.00 W/m2
11:10 65.9 °F 63.8 °F 29.99 in SSE 5 mph 8 mph 93% 0 in 604.00 W/m2
11:15 66.4 °F 64.3 °F 29.99 in South 5 mph 10 mph 93% 0 in 429.00 W/m2
11:20 66.8 °F 64.4 °F 30.00 in SSE 6 mph 12 mph 92% 0 in 322.00 W/m2
11:25 67.1 °F 64.7 °F 30.00 in South 5 mph 12 mph 92% 0 in 316.00 W/m2
11:30 67.4 °F 64.7 °F 30.00 in SSE 5 mph 11 mph 91% 0 in 245.00 W/m2
11:35 67.7 °F 64.7 °F 30.00 in South 3 mph 6 mph 90% 0 in 159.00 W/m2
11:40 67.9 °F 64.9 °F 30.00 in SSE 4 mph 8 mph 90% 0 in 263.00 W/m2
11:45 68.1 °F 64.7 °F 30.00 in SSE 4 mph 8 mph 89% 0 in 379.00 W/m2
11:50 68.3 °F 64.9 °F 30.00 in SSE 4 mph 9 mph 89% 0 in 363.00 W/m2
11:55 68.4 °F 64.7 °F 30.01 in SSE 4 mph 10 mph 88% 0 in 265.00 W/m2
12:00 68.5 °F 64.8 °F 30.01 in SSE 2 mph 7 mph 88% 0 in 175.00 W/m2
12:05 68.7 °F 65 °F 30.01 in South 3 mph 7 mph 88% 0 in 84.00 W/m2
12:10 68.7 °F 65 °F 30.01 in SSE 2 mph 7 mph 88% 0 in 69.00 W/m2
12:15 68.8 °F 64.8 °F 30.01 in SSE 4 mph 7 mph 87% 0 in 76.00 W/m2
12:20 68.8 °F 64.8 °F 30.00 in SSE 3 mph 7 mph 87% 0 in 100.00 W/m2
12:25 68.8 °F 65.1 °F 30.00 in SSE 2 mph 5 mph 88% 0 in 123.00 W/m2
12:30 68.8 °F 65.1 °F 30.00 in SSE 2 mph 6 mph 88% 0 in 115.00 W/m2
12:35 68.9 °F 65.2 °F 30.00 in South 2 mph 6 mph 88% 0 in 153.00 W/m2
12:40 69 °F 65.3 °F 30.00 in SSE 4 mph 8 mph 88% 0 in 231.00 W/m2
12:45 69.3 °F 65.6 °F 30.00 in South 2 mph 8 mph 88% 0 in 229.00 W/m2
12:50 69.4 °F 65.7 °F 30.00 in South 3 mph 7 mph 88% 0 in 153.00 W/m2
12:55 69.6 °F 65.6 °F 30.00 in SSE 3 mph 6 mph 87% 0 in 106.00 W/m2
13:00 69.7 °F 65.7 °F 30.00 in SSE 3 mph 7 mph 87% 0 in 109.00 W/m2
13:05 69.7 °F 65.7 °F 30.00 in SSE 3 mph 9 mph 87% 0 in 97.00 W/m2
13:10 69.8 °F 65.4 °F 29.99 in South 3 mph 7 mph 86% 0 in 112.00 W/m2
13:15 69.9 °F 65.8 °F 29.99 in South 2 mph 5 mph 87% 0 in 167.00 W/m2
13:20 69.9 °F 65.8 °F 29.98 in SSE 3 mph 6 mph 87% 0 in 130.00 W/m2
13:25 70 °F 65.9 °F 29.98 in SSE 2 mph 4 mph 87% 0 in 118.00 W/m2
13:30 70.1 °F 66 °F 29.98 in SSE 3 mph 6 mph 87% 0 in 148.00 W/m2
13:35 70.1 °F 66 °F 29.98 in South 2 mph 6 mph 87% 0 in 142.00 W/m2
13:40 70.2 °F 66.1 °F 29.98 in South 3 mph 8 mph 87% 0 in 122.00 W/m2
13:45 70.2 °F 66.1 °F 29.97 in SSE 4 mph 8 mph 87% 0 in 98.00 W/m2
13:50 70.2 °F 66.1 °F 29.97 in SSE 2 mph 5 mph 87% 0 in 72.00 W/m2
13:55 70.2 °F 66.1 °F 29.97 in South 2 mph 4 mph 87% 0 in 57.00 W/m2
14:00 70.1 °F 66 °F 29.97 in SSE 1 mph 4 mph 87% 0 in 45.00 W/m2
14:05 70.1 °F 66 °F 29.97 in Calm   2 mph 87% 0.01 in 22.00 W/m2
14:10 70 °F 65.9 °F 29.97 in Calm   1 mph 87% 0.02 in 31.00 W/m2
14:15 69.9 °F 66.2 °F 29.97 in SSE 1 mph 4 mph 88% 0.02 in 43.00 W/m2
14:20 69.6 °F 65.9 °F 29.96 in SSE 4 mph 9 mph 88% 0.02 in 53.00 W/m2
14:25 69.4 °F 65.7 °F 29.96 in SSE 4 mph 9 mph 88% 0.03 in 45.00 W/m2
14:30 69.1 °F 65.4 °F 29.96 in SSE 5 mph 11 mph 88% 0.03 in 56.00 W/m2
14:35 68.9 °F 65.5 °F 29.95 in SSE 5 mph 12 mph 89% 0.03 in 52.00 W/m2
14:40 68.6 °F 64.9 °F 29.95 in South 3 mph 7 mph 88% 0.03 in 43.00 W/m2
14:45 68.4 °F 64.7 °F 29.95 in SSE 2 mph 7 mph 88% 0.04 in 56.00 W/m2
14:50 68.3 °F 64.6 °F 29.95 in Calm   2 mph 88% 0.04 in 84.00 W/m2
14:55 68.1 °F 64.7 °F 29.95 in Calm   3 mph 89% 0.04 in 99.00 W/m2
15:00 68 °F 64.6 °F 29.95 in SSE 2 mph 4 mph 89% 0.04 in 115.00 W/m2
15:05 67.9 °F 64.9 °F 29.95 in SSE 3 mph 6 mph 90% 0.03 in 105.00 W/m2
15:10 67.9 °F 64.9 °F 29.95 in SSE 3 mph 6 mph 90% 0.02 in 85.00 W/m2
15:15 67.8 °F 64.8 °F 29.95 in South 3 mph 6 mph 90% 0.02 in 90.00 W/m2
15:20 67.8 °F 65.1 °F 29.95 in South 2 mph 5 mph 91% 0.02 in 96.00 W/m2
15:25 67.8 °F 65.1 °F 29.95 in SSE 2 mph 4 mph 91% 0.01 in 98.00 W/m2
15:30 67.9 °F 65.2 °F 29.95 in SSE 2 mph 6 mph 91% 0.01 in 81.00 W/m2
15:35 68 °F 65.6 °F 29.95 in SSE 3 mph 5 mph 92% 0.01 in 70.00 W/m2
15:40 68.1 °F 65.7 °F 29.95 in South 3 mph 6 mph 92% 0.01 in 62.00 W/m2
15:45 68.2 °F 65.8 °F 29.95 in SSE 4 mph 7 mph 92% 0 in 66.00 W/m2
15:50 68.2 °F 65.8 °F 29.95 in SSE 4 mph 7 mph 92% 0 in 68.00 W/m2
15:55 68.3 °F 65.9 °F 29.94 in SSE 1 mph 5 mph 92% 0 in 48.00 W/m2
16:00 68.3 °F 65.9 °F 29.95 in South 1 mph 7 mph 92% 0.01 in 36.00 W/m2
16:05 68.4 °F 66 °F 29.95 in South 2 mph 4 mph 92% 0.01 in 37.00 W/m2
16:10 68.4 °F 66 °F 29.95 in SSE 2 mph 5 mph 92% 0.01 in 41.00 W/m2
16:15 68.4 °F 66 °F 29.95 in SSE 1 mph 6 mph 92% 0.01 in 34.00 W/m2
16:20 68.4 °F 66 °F 29.95 in Calm   3 mph 92% 0.02 in 24.00 W/m2
16:25 68.4 °F 66 °F 29.95 in SSE 1 mph 4 mph 92% 0.02 in 27.00 W/m2
16:30 68.4 °F 66 °F 29.95 in SSE 1 mph 3 mph 92% 0.02 in 14.00 W/m2
16:35 68.3 °F 65.9 °F 29.95 in Calm   3 mph 92% 0.03 in 10.00 W/m2
16:40 68.3 °F 65.9 °F 29.95 in Calm   4 mph 92% 0.04 in 12.00 W/m2
16:45 68.2 °F 65.8 °F 29.95 in South 1 mph 4 mph 92% 0.04 in 13.00 W/m2
16:50 68.1 °F 65.7 °F 29.95 in South 1 mph 4 mph 92% 0.05 in 3.00 W/m2
16:55 68 °F 65.6 °F 29.95 in Calm   3 mph 92% 0.08 in 2.00 W/m2
17:00 67.9 °F 65.5 °F 29.95 in South 1 mph 5 mph 92% 0.08 in 13.00 W/m2
17:05 67.9 °F 65.5 °F 29.95 in Calm   2 mph 92% 0.08 in 13.00 W/m2
17:10 67.8 °F 65.4 °F 29.94 in Calm   2 mph 92% 0.08 in 12.00 W/m2
17:15 67.7 °F 65.3 °F 29.94 in Calm   3 mph 92% 0.08 in 12.00 W/m2
17:20 67.6 °F 65.2 °F 29.95 in Calm   4 mph 92% 0.07 in 10.00 W/m2
17:25 67.6 °F 65.2 °F 29.95 in Calm   2 mph 92% 0.08 in 0.00 W/m2
17:30 67.5 °F 65.1 °F 29.95 in SSW 1 mph 4 mph 92% 0.09 in 1.00 W/m2
17:35 67.3 °F 64.9 °F 29.95 in NW 1 mph 5 mph 92% 0.08 in 5.00 W/m2
17:40 67.1 °F 64.7 °F 29.95 in West 1 mph 2 mph 92% 0.08 in 1.00 W/m2
17:45 66.7 °F 64.3 °F 29.95 in West 1 mph 4 mph 92% 0.08 in 0.00 W/m2
17:50 66.5 °F 64.1 °F 29.96 in Calm   3 mph 92% 0.07 in 0.00 W/m2
17:55 66.3 °F 63.9 °F 29.96 in Calm     92% 0.04 in 0.00 W/m2
18:00 66.1 °F 63.7 °F 29.96 in Calm     92% 0.04 in 0.00 W/m2
18:05 65.9 °F 63.5 °F 29.95 in Calm     92% 0.04 in 0.00 W/m2
18:10 65.7 °F 63.3 °F 29.94 in Calm     92% 0.04 in 0.00 W/m2
18:15 65.6 °F 63.2 °F 29.94 in Calm     92% 0.04 in 0.00 W/m2
18:20 65.4 °F 63 °F 29.94 in Calm     92% 0.05 in 0.00 W/m2
18:25 65.3 °F 62.9 °F 29.94 in Calm     92% 0.04 in 0.00 W/m2
18:30 65.1 °F 62.7 °F 29.93 in Calm   1 mph 92% 0.04 in 0.00 W/m2
18:35 65 °F 62.6 °F 29.92 in Calm   1 mph 92% 0.04 in 0.00 W/m2
18:40 64.9 °F 62.5 °F 29.91 in Calm   2 mph 92% 0.03 in 0.00 W/m2
18:45 64.8 °F 62.4 °F 29.92 in Calm   1 mph 92% 0.03 in 0.00 W/m2
18:50 64.7 °F 62.3 °F 29.92 in Calm     92% 0.03 in 0.00 W/m2
18:55 64.6 °F 62.2 °F 29.93 in Calm     92% 0.03 in 0.00 W/m2
19:00 64.5 °F 62.1 °F 29.93 in Calm     92% 0.02 in 0.00 W/m2
Albertville, Alabama, USA
Compliments of Weather Underground - 4 mb